Meredosia, IL (62665)

7:39 PM CST on February 06, 2016 (GMT -0600)
Illinois | | Change Station
CLOSE
Current Station
Personal Weather Station
Location: Chapin, IL
Elevation: 600 ft
Nearby Weather Stations
Active Advisory: Flood Warning Active Notice: Public Information Statement

Elev 600 ft 39.79 °N, 90.37 °W | Updated 9 minutes ago

Clear
Clear
40.1 °F
Feels Like 40 °F
N
2.0
Wind Variable Wind from SW
Gusts 5.0 mph

Today
High -- | Low -- °F
--% Chance of Precip.
Yesterday
High -- | Low -- °F
Precip. -- in
Pressure 30.17 in
Visibility 10.0 miles
Clouds Clear
Windchill 40 °F
Dew Point 33 °F
Humidity 77%
Rainfall 0.00 in
Snow Depth Not available.
7:05 AM 5:27 PM
Waning Crescent, 3% visible
METAR KPPQ 070115Z AUTO 23005KT 10SM CLR 06/M02 A3017 RMK AO2 T00631019
Pressure 30.17 in
Visibility 10.0 miles
Clouds Clear
Windchill 40 °F
Dew Point 33 °F
Humidity 77%
Rainfall 0.00 in
Snow Depth Not available.
7:05 AM 5:27 PM
Waning Crescent, 3% visible
METAR KPPQ 070115Z AUTO 23005KT 10SM CLR 06/M02 A3017 RMK AO2 T00631019

10-Day Weather Forecast

Almanac

Astronomy

Feb. 06, 2016 Rise Set
Actual Time
Civil Twilight
Nautical Twilight
Astronomical Twilight
Moon
Length of Visible Light
Length of Day
Tomorrow will be .
, % of the Moon is Illuminated

Today's Extremes

State Highs State Lows

Community

WunderPhotos

Upload Photos

1,891,120 photos uploaded!

WunderBlog® & News

Nearby

Air Quality

  Air Quality AQ Index Pollutant
Not available.

Snow Depth

Station Depth Elevation

Earthquake Activity

City Distance Mag. Time & Date
Minimum magnitude displayed is 2.5.

Coastal Water Temperatures

Place Temperature

Stations

Nearby Weather Stations

Station Location Temp. Windchill Dew Point Humidity Wind Precip. Elev Updated Type
                   

Watches & Warnings

Flood Warning
Issued: 7:39 PM CST Feb. 6, 2016 – National Weather Service

The Flood Warning is cancelled for
the Illinois River at Beardstown.
* At 645 PM Saturday the stage was 13.4 feet.
* Flood stage is 14.0 feet.
* Forecast... the river will crest below flood stage at 13.9 feet
early Wednesday morning.




                  Fld observed forecast 6am
location stg stg day time sun Mon Tue

Illinois River
Beardstown 14 13.4 Sat 7 PM 13.4 13.6 13.8



Lat... Lon 4018 9023 4012 9017 4008 9037 3999 9046
      3999 9058 4015 9043